Time;durP1;ratioP1;P1;durP2;ratioP2;P2;SDS_P1;SDS_P2;PMS_P1;PMS_P2;Temp;Humidity;BMP_temperature;BMP_pressure;BME280_temperature;BME280_humidity;BME280_pressure;Samples;Min_cycle;Max_cycle;Signal;HPM_P1;HPM_P2
2022/05/12 00:00:30;;;;;;;;;;;;;;;22.32;45.05;99805.47;2075421;28;927;-55
2022/05/12 00:01:30;;;;;;;;;;;;;;;22.30;44.25;99810.09;2075418;28;788;-55
2022/05/12 00:02:30;;;;;;;;;;;;;;;22.32;44.52;99807.28;2075416;28;791;-55
2022/05/12 00:03:30;;;;;;;;;;;;;;;22.31;44.17;99802.84;2075417;28;918;-55
2022/05/12 00:04:31;;;;;;;;;;;;;;;22.29;44.49;99802.94;2075344;28;1057;-55
2022/05/12 00:05:32;;;;;;;;;;;;;;;22.28;44.69;99801.19;2075365;28;1005;-55
2022/05/12 00:06:32;;;;;;;;;;;;;;;22.29;45.04;99793.97;2075409;28;776;-55
2022/05/12 00:07:32;;;;;;;;;;;;;;;22.29;44.69;99793.97;2075343;28;977;-55
2022/05/12 00:08:32;;;;;;;;;;;;;;;22.29;45.12;99794.84;2075341;28;761;-55
2022/05/12 00:09:33;;;;;;;;;;;;;;;22.28;44.28;99800.31;2075381;28;819;-55
2022/05/12 00:10:33;;;;;;;;;;;;;;;22.28;45.14;99803.00;2075329;28;1028;-55
2022/05/12 00:11:33;;;;;;;;;;;;;;;22.29;44.29;99799.34;2075279;28;1953;-55
2022/05/12 00:12:34;;;;;;;;;;;;;;;22.28;44.19;99801.19;2075300;28;768;-55
2022/05/12 00:13:35;;;;;;;;;;;;;;;22.27;44.36;99802.16;2075347;28;1021;-55
2022/05/12 00:14:35;;;;;;;;;;;;;;;22.27;44.46;99798.56;2075319;28;1001;-56
2022/05/12 00:15:35;;;;;;;;;;;;;;;22.26;44.38;99805.81;2075332;28;732;-55
2022/05/12 00:16:36;;;;;;;;;;;;;;;22.25;44.64;99795.09;2075372;28;1017;-55
2022/05/12 00:17:36;;;;;;;;;;;;;;;22.25;44.32;99795.09;2075259;28;1056;-55
2022/05/12 00:18:36;;;;;;;;;;;;;;;22.25;45.02;99797.78;2075253;28;895;-55
2022/05/12 00:19:36;;;;;;;;;;;;;;;22.27;45.03;99798.56;2075245;28;1024;-55
2022/05/12 00:20:38;;;;;;;;;;;;;;;22.28;44.91;99800.31;2075277;28;969;-55
2022/05/12 00:21:38;;;;;;;;;;;;;;;22.27;44.45;99804.84;2075221;28;863;-55
2022/05/12 00:22:39;;;;;;;;;;;;;;;22.26;44.88;99803.13;2075229;28;985;-55
2022/05/12 00:23:39;;;;;;;;;;;;;;;22.26;44.51;99811.22;2075215;28;977;-55
2022/05/12 00:24:39;;;;;;;;;;;;;;;22.27;44.27;99809.38;2075199;28;784;-55
2022/05/12 00:25:40;;;;;;;;;;;;;;;22.26;45.01;99808.50;2075366;28;863;-55
2022/05/12 00:26:42;;;;;;;;;;;;;;;22.26;44.79;99807.63;2074994;28;1147;-55
2022/05/12 00:27:42;;;;;;;;;;;;;;;22.24;45.08;99805.03;2075213;28;838;-55
2022/05/12 00:28:42;;;;;;;;;;;;;;;22.23;44.52;99803.28;2075208;28;986;-55
2022/05/12 00:29:42;;;;;;;;;;;;;;;22.21;44.65;99800.66;2075224;28;760;-55
2022/05/12 00:30:43;;;;;;;;;;;;;;;22.20;45.14;99798.91;2075167;28;855;-56
2022/05/12 00:31:44;;;;;;;;;;;;;;;22.19;44.43;99793.63;2074976;28;1914;-55
2022/05/12 00:32:45;;;;;;;;;;;;;;;22.19;45.10;99793.63;2075191;28;906;-55
2022/05/12 00:33:45;;;;;;;;;;;;;;;22.21;45.03;99794.41;2075117;28;977;-55
2022/05/12 00:34:46;;;;;;;;;;;;;;;22.21;44.21;99797.97;2075120;28;815;-55
2022/05/12 00:35:46;;;;;;;;;;;;;;;22.24;44.89;99796.06;2075131;28;977;-55
2022/05/12 00:36:46;;;;;;;;;;;;;;;22.20;44.56;99796.22;2075126;28;857;-55
2022/05/12 00:37:46;;;;;;;;;;;;;;;22.19;44.83;99790.94;2075069;28;1253;-55
2022/05/12 00:38:46;;;;;;;;;;;;;;;22.19;44.52;99788.22;2075080;28;1040;-55
2022/05/12 00:39:47;;;;;;;;;;;;;;;22.18;44.52;99792.75;2075109;28;1052;-55
2022/05/12 00:40:47;;;;;;;;;;;;;;;22.19;45.10;99785.53;2075106;28;1044;-55
2022/05/12 00:41:47;;;;;;;;;;;;;;;22.19;44.70;99790.94;2075092;28;788;-55
2022/05/12 00:42:51;;;;;;;;;;;;;;;22.19;44.34;99785.53;2075066;28;978;-55
2022/05/12 00:43:53;;;;;;;;;;;;;;;22.18;44.39;99781.94;2075044;28;990;-55
2022/05/12 00:44:53;;;;;;;;;;;;;;;22.19;45.06;99785.53;2075071;28;796;-55
2022/05/12 00:45:53;;;;;;;;;;;;;;;22.18;44.64;99794.59;2075118;28;831;-55
2022/05/12 00:46:53;;;;;;;;;;;;;;;22.17;44.32;99784.75;2075045;28;985;-55
2022/05/12 00:47:54;;;;;;;;;;;;;;;22.17;44.72;99780.22;2075053;28;824;-55
2022/05/12 00:48:57;;;;;;;;;;;;;;;22.17;44.79;99780.22;2075065;28;792;-55
2022/05/12 00:49:58;;;;;;;;;;;;;;;22.18;44.97;99781.09;2075063;28;855;-55
2022/05/12 00:50:59;;;;;;;;;;;;;;;22.16;45.15;99780.31;2074985;28;997;-55
2022/05/12 00:52:02;;;;;;;;;;;;;;;22.16;44.43;99783.00;2074941;28;1891;-55
2022/05/12 00:53:04;;;;;;;;;;;;;;;22.17;44.49;99773.97;2075044;28;788;-55
2022/05/12 00:54:05;;;;;;;;;;;;;;;22.17;44.75;99771.25;2075035;28;776;-55
2022/05/12 00:55:10;;;;;;;;;;;;;;;22.18;44.33;99764.91;2075041;28;855;-55
2022/05/12 00:56:14;;;;;;;;;;;;;;;22.17;44.49;99765.88;2074985;28;764;-55
2022/05/12 00:57:18;;;;;;;;;;;;;;;22.16;44.28;99764.97;2075033;28;844;-55
2022/05/12 00:58:19;;;;;;;;;;;;;;;22.17;44.46;99763.16;2074932;28;1001;-55
2022/05/12 00:59:23;;;;;;;;;;;;;;;22.16;44.65;99773.06;2074988;28;785;-55
2022/05/12 01:00:23;;;;;;;;;;;;;;;22.16;45.12;99777.63;2074932;28;838;-55
2022/05/12 01:01:23;;;;;;;;;;;;;;;22.15;44.19;99768.63;2074969;28;796;-55
2022/05/12 01:02:24;;;;;;;;;;;;;;;22.16;44.58;99764.13;2074966;28;970;-55
2022/05/12 01:03:26;;;;;;;;;;;;;;;22.15;44.54;99765.94;2074986;28;780;-55
2022/05/12 01:04:29;;;;;;;;;;;;;;;22.14;44.29;99761.50;2074925;28;761;-55
2022/05/12 01:05:29;;;;;;;;;;;;;;;22.12;45.09;99760.72;2074942;28;850;-55
2022/05/12 01:06:30;;;;;;;;;;;;;;;22.12;44.36;99759.88;2074831;28;769;-55
2022/05/12 01:07:30;;;;;;;;;;;;;;;22.12;44.27;99757.16;2074941;28;946;-55
2022/05/12 01:08:30;;;;;;;;;;;;;;;22.11;44.98;99756.28;2074923;28;978;-55
2022/05/12 01:09:31;;;;;;;;;;;;;;;22.12;45.01;99759.88;2074900;28;875;-55
2022/05/12 01:10:31;;;;;;;;;;;;;;;22.10;45.02;99754.53;2074964;28;974;-55
2022/05/12 01:11:31;;;;;;;;;;;;;;;22.12;44.32;99759.88;2074857;28;1955;-55
2022/05/12 01:12:32;;;;;;;;;;;;;;;22.10;44.58;99757.25;2074883;28;966;-56
2022/05/12 01:13:33;;;;;;;;;;;;;;;22.09;44.30;99757.34;2074845;28;1033;-55
2022/05/12 01:14:33;;;;;;;;;;;;;;;22.09;44.65;99758.19;2074857;28;858;-55
2022/05/12 01:15:34;;;;;;;;;;;;;;;22.09;44.69;99758.19;2074852;28;986;-55
2022/05/12 01:16:35;;;;;;;;;;;;;;;22.10;44.17;99761.78;2074900;28;762;-55
2022/05/12 01:17:36;;;;;;;;;;;;;;;22.10;44.37;99765.34;2074780;28;1187;-55
2022/05/12 01:18:37;;;;;;;;;;;;;;;22.09;45.04;99768.13;2074840;28;970;-55
2022/05/12 01:19:39;;;;;;;;;;;;;;;22.08;44.50;99767.25;2074729;28;1558;-55
2022/05/12 01:20:40;;;;;;;;;;;;;;;22.06;44.55;99767.34;2074833;28;1057;-55
2022/05/12 01:21:40;;;;;;;;;;;;;;;22.08;45.14;99769.09;2074944;28;978;-55
2022/05/12 01:22:59;;;;;;;;;;;;;;;22.06;44.69;99764.66;2074800;28;827;-55
2022/05/12 01:24:00;;;;;;;;;;;;;;;22.08;44.83;99764.53;2074892;28;768;-55
2022/05/12 01:25:00;;;;;;;;;;;;;;;22.08;45.04;99759.16;2074982;28;683;-55
2022/05/12 01:26:06;;;;;;;;;;;;;;;22.09;44.24;99760.03;2074789;28;813;-55
2022/05/12 01:27:19;;;;;;;;;;;;;;;22.09;44.58;99757.34;2074613;28;1190;-55
2022/05/12 01:28:19;;;;;;;;;;;;;;;22.08;44.95;99756.47;2074851;28;954;-55
2022/05/12 01:29:20;;;;;;;;;;;;;;;22.08;44.15;99759.16;2074825;28;1034;-55
2022/05/12 01:30:21;;;;;;;;;;;;;;;22.08;44.32;99750.22;2074796;28;855;-55
2022/05/12 01:31:22;;;;;;;;;;;;;;;22.09;44.23;99751.94;2074730;28;1018;-55
2022/05/12 01:32:23;;;;;;;;;;;;;;;22.06;44.86;99756.56;2074836;28;1977;-55
2022/05/12 01:33:23;;;;;;;;;;;;;;;22.07;45.11;99765.53;2074786;28;788;-55
2022/05/12 01:34:24;;;;;;;;;;;;;;;22.06;44.50;99763.78;2074825;28;852;-55
2022/05/12 01:35:24;;;;;;;;;;;;;;;22.06;44.24;99758.41;2074740;28;843;-55
2022/05/12 01:36:25;;;;;;;;;;;;;;;22.08;45.16;99753.75;2074764;28;977;-55
2022/05/12 01:37:25;;;;;;;;;;;;;;;22.06;44.28;99748.47;2074746;28;848;-55
2022/05/12 01:38:25;;;;;;;;;;;;;;;22.08;45.06;99752.91;2074893;28;694;-55
2022/05/12 01:39:25;;;;;;;;;;;;;;;22.08;45.12;99755.59;2074718;28;1048;-55
2022/05/12 01:40:26;;;;;;;;;;;;;;;22.07;44.30;99752.06;2074729;28;994;-55
2022/05/12 01:41:27;;;;;;;;;;;;;;;22.06;44.31;99751.16;2074718;28;934;-55
2022/05/12 01:42:27;;;;;;;;;;;;;;;22.07;44.40;99752.06;2074717;28;1038;-56
2022/05/12 01:43:27;;;;;;;;;;;;;;;22.05;44.78;99746.72;2074161;28;845;-55
2022/05/12 01:44:27;;;;;;;;;;;;;;;22.05;44.48;99746.72;2074084;28;1001;-55
2022/05/12 01:45:27;;;;;;;;;;;;;;;22.05;44.17;99744.03;2074681;28;997;-55
2022/05/12 01:46:27;;;;;;;;;;;;;;;22.06;44.24;99748.47;2074042;28;796;-55
2022/05/12 01:47:27;;;;;;;;;;;;;;;22.06;44.98;99736.81;2065939;28;1296;-55
2022/05/12 01:48:28;;;;;;;;;;;;;;;22.08;44.59;99731.34;2065803;28;1081;-55
2022/05/12 01:49:28;;;;;;;;;;;;;;;22.08;44.21;99731.34;2073985;28;1014;-55
2022/05/12 01:50:28;;;;;;;;;;;;;;;22.05;44.21;99729.69;2082197;28;783;-55
2022/05/12 01:51:28;;;;;;;;;;;;;;;22.06;44.19;99731.44;2074791;28;1957;-55
2022/05/12 01:52:29;;;;;;;;;;;;;;;22.07;44.25;99727.78;2074646;28;827;-55
2022/05/12 01:53:30;;;;;;;;;;;;;;;22.06;44.25;99723.34;2073941;28;1325;-55
2022/05/12 01:54:30;;;;;;;;;;;;;;;22.06;44.28;99723.34;2074097;28;887;-55
2022/05/12 01:55:31;;;;;;;;;;;;;;;22.05;44.10;99724.31;2074023;28;816;-55
2022/05/12 01:56:31;;;;;;;;;;;;;;;22.05;44.85;99714.38;2074113;28;777;-55
2022/05/12 01:57:31;;;;;;;;;;;;;;;22.05;44.18;99714.38;2074679;28;851;-55
2022/05/12 01:58:31;;;;;;;;;;;;;;;22.06;44.14;99718.81;2074699;28;748;-55
2022/05/12 01:59:31;;;;;;;;;;;;;;;22.06;44.81;99710.72;2074700;28;1039;-55
2022/05/12 02:00:32;;;;;;;;;;;;;;;22.06;44.88;99708.03;2074678;28;898;-55
2022/05/12 02:01:32;;;;;;;;;;;;;;;22.07;44.56;99717.00;2074670;28;855;-55
2022/05/12 02:02:33;;;;;;;;;;;;;;;22.07;44.34;99717.00;2074083;28;816;-56
2022/05/12 02:03:34;;;;;;;;;;;;;;;22.05;45.02;99717.06;2065888;28;1397;-55
2022/05/12 02:04:34;;;;;;;;;;;;;;;22.05;45.00;99716.22;2074102;28;811;-55
2022/05/12 02:05:35;;;;;;;;;;;;;;;22.05;44.83;99716.22;2074750;28;1001;-55
2022/05/12 02:06:36;;;;;;;;;;;;;;;22.03;45.08;99716.28;2074614;28;1983;-55
2022/05/12 02:07:37;;;;;;;;;;;;;;;22.03;45.09;99716.28;2074595;28;1908;-55
2022/05/12 02:08:37;;;;;;;;;;;;;;;22.04;44.27;99714.47;2074621;28;764;-55
2022/05/12 02:09:37;;;;;;;;;;;;;;;22.03;44.55;99712.72;2074638;28;886;-55
2022/05/12 02:10:40;;;;;;;;;;;;;;;22.04;44.95;99709.94;2074593;28;990;-55
2022/05/12 02:11:40;;;;;;;;;;;;;;;22.03;44.19;99716.28;2074558;28;1894;-55
2022/05/12 02:12:41;;;;;;;;;;;;;;;22.04;44.09;99714.47;2074663;28;856;-55
2022/05/12 02:13:41;;;;;;;;;;;;;;;22.04;44.37;99712.63;2074692;28;977;-55
2022/05/12 02:14:41;;;;;;;;;;;;;;;22.03;44.58;99710.88;2074619;28;827;-55
2022/05/12 02:15:42;;;;;;;;;;;;;;;22.02;44.50;99714.53;2074597;28;764;-55
2022/05/12 02:16:42;;;;;;;;;;;;;;;22.02;45.04;99705.59;2074707;28;843;-55
2022/05/12 02:17:42;;;;;;;;;;;;;;;22.02;44.80;99709.16;2074591;28;1025;-55
2022/05/12 02:18:45;;;;;;;;;;;;;;;22.01;44.41;99710.09;2075082;28;974;-56
2022/05/12 02:19:45;;;;;;;;;;;;;;;22.02;44.26;99701.06;2076166;28;958;-55
2022/05/12 02:20:46;;;;;;;;;;;;;;;22.02;44.46;99709.16;2076195;28;827;-55
2022/05/12 02:21:46;;;;;;;;;;;;;;;22.03;44.69;99702.78;2076176;28;776;-55
2022/05/12 02:22:47;;;;;;;;;;;;;;;22.03;44.43;99699.25;2076257;28;771;-55
2022/05/12 02:23:47;;;;;;;;;;;;;;;22.04;44.26;99698.28;2076129;28;907;-55
2022/05/12 02:24:47;;;;;;;;;;;;;;;22.04;44.69;99703.69;2076132;28;816;-55
2022/05/12 02:25:47;;;;;;;;;;;;;;;22.02;45.01;99695.66;2076141;28;828;-55
2022/05/12 02:26:47;;;;;;;;;;;;;;;22.01;44.56;99685.84;2075947;28;1321;-55
2022/05/12 02:27:49;;;;;;;;;;;;;;;22.02;45.07;99690.28;2076196;28;855;-55
2022/05/12 02:28:49;;;;;;;;;;;;;;;22.01;44.15;99693.94;2076145;28;784;-55
2022/05/12 02:29:49;;;;;;;;;;;;;;;22.02;44.68;99690.28;2076165;28;1040;-55
2022/05/12 02:30:49;;;;;;;;;;;;;;;22.03;44.16;99691.16;2075440;28;959;-56
2022/05/12 02:31:50;;;;;;;;;;;;;;;22.02;44.91;99687.56;2075424;28;1983;-55
2022/05/12 02:32:51;;;;;;;;;;;;;;;22.03;44.84;99685.75;2076173;28;772;-55
2022/05/12 02:33:51;;;;;;;;;;;;;;;22.02;44.80;99682.19;2076114;28;1057;-55
2022/05/12 02:34:51;;;;;;;;;;;;;;;22.03;44.49;99688.47;2075951;28;1717;-55
2022/05/12 02:35:51;;;;;;;;;;;;;;;22.02;44.29;99686.72;2076029;28;907;-55
2022/05/12 02:37:01;;;;;;;;;;;;;;;22.01;44.28;99683.13;2076079;28;962;-55
2022/05/12 02:38:01;;;;;;;;;;;;;;;22.00;44.67;99681.41;2076076;28;899;-55
2022/05/12 02:39:01;;;;;;;;;;;;;;;22.02;44.43;99681.31;2076069;28;997;-55
2022/05/12 02:40:02;;;;;;;;;;;;;;;22.00;44.93;99678.69;2076071;28;839;-55
2022/05/12 02:41:02;;;;;;;;;;;;;;;22.01;44.18;99676.91;2076078;28;887;-55
2022/05/12 02:42:03;;;;;;;;;;;;;;;22.01;44.56;99674.19;2076092;28;902;-55
2022/05/12 02:43:23;;;;;;;;;;;;;;;22.01;44.28;99677.75;2075984;28;1005;-55
2022/05/12 02:44:23;;;;;;;;;;;;;;;22.02;44.79;99682.19;2075999;28;839;-55
2022/05/12 02:45:24;;;;;;;;;;;;;;;22.01;44.12;99683.13;2075943;28;1033;-55
2022/05/12 02:46:24;;;;;;;;;;;;;;;22.01;44.83;99675.06;2075976;28;863;-55
2022/05/12 02:47:24;;;;;;;;;;;;;;;22.01;44.16;99679.59;2075972;28;773;-55
2022/05/12 02:48:26;;;;;;;;;;;;;;;22.00;44.09;99683.25;2075944;28;977;-56
2022/05/12 02:49:26;;;;;;;;;;;;;;;21.99;44.35;99674.28;2075929;28;792;-55
2022/05/12 02:50:27;;;;;;;;;;;;;;;22.01;45.05;99676.91;2075245;28;1538;-55
2022/05/12 02:51:27;;;;;;;;;;;;;;;22.00;44.53;99675.16;2075409;28;993;-55
2022/05/12 02:52:27;;;;;;;;;;;;;;;21.99;44.45;99668.03;2075865;28;1964;-55
2022/05/12 02:53:28;;;;;;;;;;;;;;;22.00;45.05;99667.06;2075899;28;831;-55
2022/05/12 02:54:28;;;;;;;;;;;;;;;22.00;44.38;99665.22;2075935;28;1013;-55
2022/05/12 02:55:28;;;;;;;;;;;;;;;22.00;44.15;99667.91;2075976;28;772;-55
2022/05/12 02:56:28;;;;;;;;;;;;;;;21.99;44.96;99668.88;2075884;28;867;-55
2022/05/12 02:57:28;;;;;;;;;;;;;;;22.00;44.86;99667.06;2075863;28;982;-55
2022/05/12 02:58:29;;;;;;;;;;;;;;;21.99;44.46;99670.72;2075832;28;823;-55
2022/05/12 02:59:29;;;;;;;;;;;;;;;21.99;44.76;99666.19;2075903;28;914;-55
2022/05/12 03:00:31;;;;;;;;;;;;;;;21.99;44.51;99670.72;2075910;28;772;-55
2022/05/12 03:01:31;;;;;;;;;;;;;;;21.99;44.46;99676.97;2075840;28;831;-55
2022/05/12 03:02:31;;;;;;;;;;;;;;;22.00;45.00;99677.84;2075845;28;851;-55
2022/05/12 03:03:31;;;;;;;;;;;;;;;21.99;44.54;99682.34;2075832;28;839;-55
2022/05/12 03:04:33;;;;;;;;;;;;;;;21.99;44.67;99681.50;2075999;28;798;-55
2022/05/12 03:05:34;;;;;;;;;;;;;;;21.99;44.95;99681.50;2075857;28;840;-55
2022/05/12 03:06:34;;;;;;;;;;;;;;;21.99;44.91;99676.13;2075786;28;1052;-55
2022/05/12 03:07:34;;;;;;;;;;;;;;;22.00;44.11;99672.47;2075842;28;832;-55
2022/05/12 03:08:34;;;;;;;;;;;;;;;21.99;44.97;99676.97;2075793;28;1021;-55
2022/05/12 03:09:34;;;;;;;;;;;;;;;21.99;44.33;99676.13;2075916;28;907;-55
2022/05/12 03:10:35;;;;;;;;;;;;;;;21.99;44.35;99668.03;2075746;28;816;-55
2022/05/12 03:11:35;;;;;;;;;;;;;;;21.99;44.26;99666.19;2075759;28;1933;-55
2022/05/12 03:12:36;;;;;;;;;;;;;;;21.97;45.03;99657.31;2075786;28;914;-55
2022/05/12 03:13:36;;;;;;;;;;;;;;;21.97;44.30;99668.09;2075773;28;808;-55
2022/05/12 03:14:36;;;;;;;;;;;;;;;21.96;44.69;99663.66;2075752;28;777;-55
2022/05/12 03:15:37;;;;;;;;;;;;;;;21.99;44.23;99668.03;2075766;28;759;-55
2022/05/12 03:16:37;;;;;;;;;;;;;;;21.98;44.17;99664.44;2075780;28;863;-55
2022/05/12 03:17:37;;;;;;;;;;;;;;;21.99;44.82;99659.94;2075742;28;990;-55
2022/05/12 03:18:37;;;;;;;;;;;;;;;21.97;44.23;99665.41;2075718;28;819;-55
2022/05/12 03:19:37;;;;;;;;;;;;;;;21.98;45.04;99658.19;2075709;28;859;-55
2022/05/12 03:20:37;;;;;;;;;;;;;;;21.99;44.18;99658.09;2075671;28;867;-55
2022/05/12 03:21:38;;;;;;;;;;;;;;;21.99;44.95;99668.03;2075738;28;998;-55
2022/05/12 03:22:39;;;;;;;;;;;;;;;22.00;44.30;99667.06;2075788;28;875;-55
2022/05/12 03:23:40;;;;;;;;;;;;;;;21.98;44.98;99653.66;2075676;28;820;-55
2022/05/12 03:24:40;;;;;;;;;;;;;;;21.99;45.08;99654.53;2075661;28;862;-55
2022/05/12 03:25:43;;;;;;;;;;;;;;;21.97;44.46;99649.22;2075678;28;843;-55
2022/05/12 03:26:43;;;;;;;;;;;;;;;21.98;44.15;99653.66;2075508;28;1064;-55
2022/05/12 03:27:43;;;;;;;;;;;;;;;21.97;44.97;99651.91;2075714;28;839;-55
2022/05/12 03:28:43;;;;;;;;;;;;;;;21.97;44.45;99651.91;2075777;28;982;-55
2022/05/12 03:29:43;;;;;;;;;;;;;;;21.97;44.68;99649.22;2075266;28;1033;-55
2022/05/12 03:30:44;;;;;;;;;;;;;;;21.99;44.24;99652.69;2074827;28;757;-55
2022/05/12 03:31:44;;;;;;;;;;;;;;;21.99;44.53;99650.00;2075580;28;1997;-55
2022/05/12 03:32:44;;;;;;;;;;;;;;;21.99;44.62;99652.69;2075617;28;918;-55
2022/05/12 03:33:46;;;;;;;;;;;;;;;21.98;45.10;99648.25;2075627;28;1065;-55
2022/05/12 03:34:46;;;;;;;;;;;;;;;21.98;44.49;99650.09;2075586;28;838;-55
2022/05/12 03:35:47;;;;;;;;;;;;;;;21.98;44.33;99650.09;2075578;28;1021;-55
2022/05/12 03:36:47;;;;;;;;;;;;;;;21.99;44.53;99639.22;2075557;28;788;-55
2022/05/12 03:37:47;;;;;;;;;;;;;;;21.98;44.88;99645.56;2075603;28;835;-56
2022/05/12 03:38:48;;;;;;;;;;;;;;;21.99;44.57;99646.44;2075557;28;1068;-55
2022/05/12 03:39:48;;;;;;;;;;;;;;;21.98;44.33;99642.00;2075545;28;796;-55
2022/05/12 03:40:48;;;;;;;;;;;;;;;21.98;44.37;99642.00;2075578;28;887;-55
2022/05/12 03:41:48;;;;;;;;;;;;;;;21.96;45.07;99641.22;2075544;28;784;-55
2022/05/12 03:42:50;;;;;;;;;;;;;;;21.95;44.65;99637.66;2075572;28;852;-56
2022/05/12 03:45:09;;;;;;;;;;;;;;;21.94;44.55;99633.22;2075554;28;673;-55
2022/05/12 03:46:09;;;;;;;;;;;;;;;21.95;45.06;99640.34;2075536;28;772;-55
2022/05/12 03:47:10;;;;;;;;;;;;;;;21.96;44.98;99644.78;2075617;28;780;-55
2022/05/12 03:48:10;;;;;;;;;;;;;;;21.97;45.14;99637.59;2075546;28;803;-55
2022/05/12 03:49:11;;;;;;;;;;;;;;;21.96;44.44;99639.41;2075441;28;769;-55
2022/05/12 03:50:13;;;;;;;;;;;;;;;21.98;44.31;99642.00;2075630;28;856;-55
2022/05/12 03:51:13;;;;;;;;;;;;;;;21.97;44.96;99641.13;2075481;28;1048;-55
2022/05/12 03:52:13;;;;;;;;;;;;;;;21.96;44.61;99634.00;2075412;28;1886;-56
2022/05/12 03:53:13;;;;;;;;;;;;;;;21.96;44.23;99630.44;2075479;28;863;-55
2022/05/12 03:54:14;;;;;;;;;;;;;;;21.97;44.82;99634.88;2075433;28;851;-55
2022/05/12 03:55:16;;;;;;;;;;;;;;;21.95;44.36;99634.97;2075599;28;982;-56
2022/05/12 03:56:16;;;;;;;;;;;;;;;21.94;44.61;99629.66;2075628;28;619;-55
2022/05/12 03:57:18;;;;;;;;;;;;;;;21.95;44.58;99632.25;2075445;28;926;-55
2022/05/12 03:58:18;;;;;;;;;;;;;;;21.95;44.32;99628.72;2075414;28;804;-55
2022/05/12 03:59:18;;;;;;;;;;;;;;;21.95;44.43;99628.72;2075389;28;1072;-55
2022/05/12 04:00:21;;;;;;;;;;;;;;;21.95;44.29;99626.88;2075442;28;1006;-55
2022/05/12 04:01:21;;;;;;;;;;;;;;;22.30;44.11;99623.06;2075386;28;1002;-55
2022/05/12 04:02:21;;;;;;;;;;;;;;;23.19;42.13;99623.97;2075377;28;998;-55
2022/05/12 04:03:21;;;;;;;;;;;;;;;23.77;40.58;99613.94;2075366;28;772;-55
2022/05/12 04:04:21;;;;;;;;;;;;;;;24.18;39.25;99612.16;2075409;28;824;-54
2022/05/12 04:05:22;;;;;;;;;;;;;;;24.52;38.55;99614.38;2075375;28;871;-55
2022/05/12 04:06:22;;;;;;;;;;;;;;;24.84;38.61;99622.09;2075399;28;799;-55
2022/05/12 04:07:23;;;;;;;;;;;;;;;25.04;37.86;99617.13;2075324;28;1045;-55
2022/05/12 04:08:23;;;;;;;;;;;;;;;25.18;36.97;99611.59;2075493;28;958;-55
2022/05/12 04:09:23;;;;;;;;;;;;;;;25.39;36.71;99616.41;2075349;28;859;-55
2022/05/12 04:10:23;;;;;;;;;;;;;;;25.58;36.93;99615.97;2075344;28;1025;-54
2022/05/12 04:11:24;;;;;;;;;;;;;;;25.84;36.36;99607.72;2075282;28;819;-55
2022/05/12 04:12:24;;;;;;;;;;;;;;;25.88;35.58;99615.53;2075278;28;1955;-55
2022/05/12 04:13:24;;;;;;;;;;;;;;;25.95;35.75;99612.31;2075434;28;998;-55
2022/05/12 04:14:24;;;;;;;;;;;;;;;26.16;35.18;99607.16;2075292;28;1025;-54
2022/05/12 04:15:25;;;;;;;;;;;;;;;26.27;34.80;99600.91;2074634;28;1187;-55
2022/05/12 04:16:25;;;;;;;;;;;;;;;26.35;34.48;99601.19;2066542;28;883;-54
2022/05/12 04:17:25;;;;;;;;;;;;;;;26.52;34.17;99599.84;2074724;28;978;-55
2022/05/12 04:18:26;;;;;;;;;;;;;;;26.71;33.96;99593.00;2075277;28;796;-54
2022/05/12 04:19:28;;;;;;;;;;;;;;;26.70;34.49;99602.97;2075322;28;816;-55
2022/05/12 04:20:29;;;;;;;;;;;;;;;26.85;33.62;99597.34;2075236;28;796;-55
2022/05/12 04:21:31;;;;;;;;;;;;;;;26.96;33.79;99607.34;2075241;28;1005;-55
2022/05/12 04:22:31;;;;;;;;;;;;;;;26.99;33.23;99607.09;2075216;28;859;-55
2022/05/12 04:23:31;;;;;;;;;;;;;;;27.13;33.40;99603.25;2075211;28;1045;-55
2022/05/12 04:24:31;;;;;;;;;;;;;;;27.27;32.77;99607.59;2075170;28;998;-55
2022/05/12 04:25:32;;;;;;;;;;;;;;;27.27;33.42;99610.31;2075232;28;1033;-55
2022/05/12 04:26:36;;;;;;;;;;;;;;;27.29;33.57;99609.19;2075016;28;1040;-55
2022/05/12 04:27:37;;;;;;;;;;;;;;;27.40;33.00;99597.44;2075278;28;776;-55
2022/05/12 04:28:37;;;;;;;;;;;;;;;27.58;32.33;99606.00;2075181;28;942;-55
2022/05/12 04:29:38;;;;;;;;;;;;;;;27.55;32.26;99595.34;2075156;28;879;-55
2022/05/12 04:30:38;;;;;;;;;;;;;;;27.71;32.58;99594.06;2075198;28;894;-54
2022/05/12 04:31:39;;;;;;;;;;;;;;;27.78;32.29;99601.59;2075091;28;1971;-55
2022/05/12 04:32:40;;;;;;;;;;;;;;;27.77;32.31;99601.72;2075191;28;807;-55
2022/05/12 04:35:20;;;;;;;;;;;;;;;28.08;31.75;99593.69;2075182;28;673;-55
2022/05/12 04:36:19;;;;;;;;;;;;;;;28.13;31.55;99591.47;2074922;28;1198;-55
2022/05/12 04:37:29;;;;;;;;;;;;;;;28.23;31.26;99594.28;2075051;28;1219;-55
2022/05/12 04:38:30;;;;;;;;;;;;;;;28.13;31.70;99599.66;2075101;28;863;-55
2022/05/12 04:39:31;;;;;;;;;;;;;;;28.21;31.21;99598.97;2075105;28;1050;-55
2022/05/12 04:40:32;;;;;;;;;;;;;;;28.22;31.39;99598.00;2075078;28;819;-55
2022/05/12 04:41:32;;;;;;;;;;;;;;;28.16;31.69;99593.06;2074738;28;835;-55
2022/05/12 04:42:32;;;;;;;;;;;;;;;28.13;31.36;99587.88;2075135;28;831;-55
2022/05/12 04:43:32;;;;;;;;;;;;;;;28.26;31.51;99583.13;2075071;28;978;-55
2022/05/12 04:44:32;;;;;;;;;;;;;;;28.32;31.06;99581.72;2075073;28;827;-55
2022/05/12 04:45:33;;;;;;;;;;;;;;;28.43;31.21;99584.38;2075058;28;887;-55
2022/05/12 04:46:34;;;;;;;;;;;;;;;28.45;30.93;99587.84;2075056;28;827;-55
2022/05/12 04:47:34;;;;;;;;;;;;;;;28.54;30.72;99587.03;2075093;28;812;-55
2022/05/12 04:48:36;;;;;;;;;;;;;;;28.55;31.13;99583.31;2075064;28;1002;-55
2022/05/12 04:49:36;;;;;;;;;;;;;;;28.57;31.20;99587.78;2075043;28;788;-55
2022/05/12 04:50:40;;;;;;;;;;;;;;;28.53;30.63;99588.03;2074994;28;1033;-55
2022/05/12 04:51:40;;;;;;;;;;;;;;;28.57;30.58;99585.03;2074992;28;1968;-55
2022/05/12 04:52:41;;;;;;;;;;;;;;;28.57;30.97;99587.78;2074349;28;1354;-55
2022/05/12 04:53:41;;;;;;;;;;;;;;;28.55;31.17;99582.47;2074354;28;1044;-55
2022/05/12 04:54:41;;;;;;;;;;;;;;;28.54;30.78;99580.75;2074985;28;1049;-55
2022/05/12 04:55:43;;;;;;;;;;;;;;;28.49;30.78;99583.00;2075029;28;709;-55
2022/05/12 04:56:43;;;;;;;;;;;;;;;28.59;31.01;99583.91;2074962;28;780;-56
2022/05/12 04:57:44;;;;;;;;;;;;;;;28.60;31.09;99585.63;2075023;28;812;-55
2022/05/12 04:58:44;;;;;;;;;;;;;;;28.63;31.07;99589.97;2074861;28;1981;-55
2022/05/12 04:59:44;;;;;;;;;;;;;;;28.65;30.34;99588.81;2075110;28;671;-55
2022/05/12 05:00:45;;;;;;;;;;;;;;;28.73;30.58;99582.72;2074968;28;859;-55
2022/05/12 05:01:45;;;;;;;;;;;;;;;28.73;30.38;99582.72;2074947;28;974;-55
2022/05/12 05:02:46;;;;;;;;;;;;;;;28.85;30.69;99583.50;2074956;28;785;-55
2022/05/12 05:03:46;;;;;;;;;;;;;;;28.82;30.41;99587.38;2074919;28;823;-55
2022/05/12 05:04:46;;;;;;;;;;;;;;;28.89;30.11;99581.38;2074960;28;958;-56
2022/05/12 05:05:48;;;;;;;;;;;;;;;28.88;30.19;99577.78;2074923;28;832;-55
2022/05/12 05:06:48;;;;;;;;;;;;;;;28.96;30.23;99579.81;2075010;28;780;-55
2022/05/12 05:07:48;;;;;;;;;;;;;;;28.92;30.18;99576.53;2074888;28;894;-55
2022/05/12 05:08:48;;;;;;;;;;;;;;;28.88;30.04;99574.19;2074885;28;792;-55
2022/05/12 05:09:48;;;;;;;;;;;;;;;28.99;30.16;99580.44;2074935;28;986;-55
2022/05/12 05:10:49;;;;;;;;;;;;;;;29.02;29.99;99573.81;2074854;28;1029;-55
2022/05/12 05:11:50;;;;;;;;;;;;;;;28.92;29.76;99576.53;2074717;28;1886;-55
2022/05/12 05:12:52;;;;;;;;;;;;;;;28.80;30.16;99583.94;2074174;28;804;-55
2022/05/12 05:13:53;;;;;;;;;;;;;;;28.81;30.75;99579.34;2074319;28;820;-55
2022/05/12 05:14:53;;;;;;;;;;;;;;;28.93;30.41;99580.09;2074865;28;796;-55
2022/05/12 05:15:53;;;;;;;;;;;;;;;28.83;30.50;99578.22;2074836;28;764;-55
2022/05/12 05:16:53;;;;;;;;;;;;;;;28.83;30.60;99578.22;2074158;28;2457;-55
2022/05/12 05:17:54;;;;;;;;;;;;;;;29.06;29.80;99579.88;2074250;28;868;-55
2022/05/12 05:18:54;;;;;;;;;;;;;;;29.10;30.18;99571.28;2074856;28;867;-55
2022/05/12 05:19:55;;;;;;;;;;;;;;;28.96;29.97;99577.97;2074861;28;1002;-55
2022/05/12 05:20:55;;;;;;;;;;;;;;;28.88;30.34;99577.78;2074152;28;1621;-55
2022/05/12 05:21:55;;;;;;;;;;;;;;;28.84;30.38;99579.94;2074260;28;899;-55
2022/05/12 05:22:56;;;;;;;;;;;;;;;28.94;30.61;99577.25;2074766;28;982;-55
2022/05/12 05:23:56;;;;;;;;;;;;;;;28.89;29.92;99578.63;2074830;28;942;-55
2022/05/12 05:24:56;;;;;;;;;;;;;;;29.01;29.88;99571.25;2074801;28;667;-55
2022/05/12 05:25:57;;;;;;;;;;;;;;;29.02;30.11;99579.28;2074762;28;847;-55
2022/05/12 05:26:57;;;;;;;;;;;;;;;29.02;29.77;99576.56;2074597;28;1305;-55